sensor_id;sensor_type;location;lat;lon;timestamp;pressure;altitude;pressure_sealevel;temperature;humidity
59690;BME280;45557;50.298;18.930;2022-12-16T00:00:06;97536.36;;;-2.43;81.08
59690;BME280;45557;50.298;18.930;2022-12-16T00:06:45;97540.85;;;-2.48;81.01
59690;BME280;45557;50.298;18.930;2022-12-16T00:13:37;97549.31;;;-2.47;81.06
59690;BME280;45557;50.298;18.930;2022-12-16T00:20:23;97555.39;;;-2.48;81.11
59690;BME280;45557;50.298;18.930;2022-12-16T00:33:28;97547.61;;;-2.48;81.11
59690;BME280;45557;50.298;18.930;2022-12-16T00:40:30;97521.73;;;-2.42;81.14
59690;BME280;45557;50.298;18.930;2022-12-16T00:47:20;97513.03;;;-2.45;81.04
59690;BME280;45557;50.298;18.930;2022-12-16T00:54:10;97515.61;;;-2.40;80.86
59690;BME280;45557;50.298;18.930;2022-12-16T01:01:19;97515.90;;;-2.42;81.02
59690;BME280;45557;50.298;18.930;2022-12-16T01:08:03;97513.42;;;-2.50;81.26
59690;BME280;45557;50.298;18.930;2022-12-16T01:14:41;97496.45;;;-2.52;81.74
59690;BME280;45557;50.298;18.930;2022-12-16T01:21:22;97484.09;;;-2.48;81.54
59690;BME280;45557;50.298;18.930;2022-12-16T01:28:03;97473.51;;;-2.47;81.72
59690;BME280;45557;50.298;18.930;2022-12-16T01:34:47;97464.98;;;-2.46;81.89
59690;BME280;45557;50.298;18.930;2022-12-16T01:41:24;97460.14;;;-2.54;82.02
59690;BME280;45557;50.298;18.930;2022-12-16T02:02:02;97419.06;;;-2.63;82.85
59690;BME280;45557;50.298;18.930;2022-12-16T02:08:54;97410.95;;;-2.62;82.92
59690;BME280;45557;50.298;18.930;2022-12-16T02:15:45;97412.34;;;-2.66;83.27
59690;BME280;45557;50.298;18.930;2022-12-16T02:50:22;97361.37;;;-2.58;83.09
59690;BME280;45557;50.298;18.930;2022-12-16T03:03:19;97351.27;;;-2.49;83.30
59690;BME280;45557;50.298;18.930;2022-12-16T03:15:48;97329.84;;;-2.48;83.28
59690;BME280;45557;50.298;18.930;2022-12-16T03:22:35;97323.66;;;-2.47;83.42
59690;BME280;45557;50.298;18.930;2022-12-16T03:36:20;97310.90;;;-2.52;83.48
59690;BME280;45557;50.298;18.930;2022-12-16T03:43:10;97295.33;;;-2.58;83.55
59690;BME280;45557;50.298;18.930;2022-12-16T03:50:07;97293.48;;;-2.63;83.78
59690;BME280;45557;50.298;18.930;2022-12-16T03:56:57;97288.43;;;-2.55;83.86
59690;BME280;45557;50.298;18.930;2022-12-16T04:03:46;97289.70;;;-2.52;83.49
59690;BME280;45557;50.298;18.930;2022-12-16T04:10:31;97292.06;;;-2.59;83.51
59690;BME280;45557;50.298;18.930;2022-12-16T04:17:14;97286.37;;;-2.64;83.99
59690;BME280;45557;50.298;18.930;2022-12-16T04:24:07;97291.90;;;-2.56;83.77
59690;BME280;45557;50.298;18.930;2022-12-16T04:30:49;97279.73;;;-2.54;83.52
59690;BME280;45557;50.298;18.930;2022-12-16T04:37:48;97290.41;;;-2.60;83.84
59690;BME280;45557;50.298;18.930;2022-12-16T04:44:33;97288.41;;;-2.54;83.88
59690;BME280;45557;50.298;18.930;2022-12-16T04:51:26;97286.44;;;-2.47;83.51
59690;BME280;45557;50.298;18.930;2022-12-16T04:58:14;97293.01;;;-2.52;83.42
59690;BME280;45557;50.298;18.930;2022-12-16T05:05:26;97277.23;;;-2.57;83.66
59690;BME280;45557;50.298;18.930;2022-12-16T05:19:25;97282.34;;;-2.59;83.81
59690;BME280;45557;50.298;18.930;2022-12-16T05:26:12;97275.95;;;-2.70;83.46
59690;BME280;45557;50.298;18.930;2022-12-16T05:32:52;97263.30;;;-2.84;83.64
59690;BME280;45557;50.298;18.930;2022-12-16T05:39:31;97251.17;;;-3.02;83.99
59690;BME280;45557;50.298;18.930;2022-12-16T05:46:11;97254.05;;;-3.11;84.22
59690;BME280;45557;50.298;18.930;2022-12-16T05:52:51;97240.36;;;-3.13;84.46
59690;BME280;45557;50.298;18.930;2022-12-16T05:59:30;97234.94;;;-3.16;84.92
59690;BME280;45557;50.298;18.930;2022-12-16T06:06:13;97228.70;;;-3.17;84.90
59690;BME280;45557;50.298;18.930;2022-12-16T06:13:23;97252.15;;;-3.19;84.77
59690;BME280;45557;50.298;18.930;2022-12-16T06:20:05;97247.69;;;-3.16;85.07
59690;BME280;45557;50.298;18.930;2022-12-16T06:26:48;97226.33;;;-3.19;85.26
59690;BME280;45557;50.298;18.930;2022-12-16T06:33:31;97230.31;;;-3.21;85.49
59690;BME280;45557;50.298;18.930;2022-12-16T06:40:13;97220.17;;;-3.23;85.54
59690;BME280;45557;50.298;18.930;2022-12-16T06:46:57;97221.46;;;-3.21;85.80
59690;BME280;45557;50.298;18.930;2022-12-16T06:53:39;97217.02;;;-3.20;85.71
59690;BME280;45557;50.298;18.930;2022-12-16T07:00:25;97228.66;;;-3.08;85.46
59690;BME280;45557;50.298;18.930;2022-12-16T07:07:13;97229.42;;;-2.99;84.91
59690;BME280;45557;50.298;18.930;2022-12-16T07:13:55;97215.44;;;-2.95;84.79
59690;BME280;45557;50.298;18.930;2022-12-16T07:20:44;97205.49;;;-2.94;84.85
59690;BME280;45557;50.298;18.930;2022-12-16T07:27:25;97203.65;;;-2.89;84.11
59690;BME280;45557;50.298;18.930;2022-12-16T07:34:18;97210.08;;;-2.91;84.26
59690;BME280;45557;50.298;18.930;2022-12-16T07:40:32;97203.27;;;-2.93;84.31
59690;BME280;45557;50.298;18.930;2022-12-16T08:06:30;97202.79;;;-2.77;83.98
59690;BME280;45557;50.298;18.930;2022-12-16T08:12:25;97211.15;;;-2.73;84.18
59690;BME280;45557;50.298;18.930;2022-12-16T08:19:06;97219.20;;;-2.68;84.16
59690;BME280;45557;50.298;18.930;2022-12-16T08:25:57;97230.77;;;-2.53;84.07
59690;BME280;45557;50.298;18.930;2022-12-16T08:32:38;97238.20;;;-2.39;83.72
59690;BME280;45557;50.298;18.930;2022-12-16T08:39:12;97234.02;;;-2.41;83.51
59690;BME280;45557;50.298;18.930;2022-12-16T08:46:25;97239.40;;;-2.43;83.80
59690;BME280;45557;50.298;18.930;2022-12-16T08:53:28;97245.33;;;-2.40;84.06
59690;BME280;45557;50.298;18.930;2022-12-16T09:00:13;97244.41;;;-2.40;84.05
59690;BME280;45557;50.298;18.930;2022-12-16T09:07:13;97242.72;;;-2.24;84.64
59690;BME280;45557;50.298;18.930;2022-12-16T09:13:55;97260.67;;;-2.09;84.29
59690;BME280;45557;50.298;18.930;2022-12-16T09:20:42;97277.15;;;-2.08;83.56
59690;BME280;45557;50.298;18.930;2022-12-16T09:27:23;97296.98;;;-2.13;83.61
59690;BME280;45557;50.298;18.930;2022-12-16T09:34:06;97315.95;;;-2.23;84.00
59690;BME280;45557;50.298;18.930;2022-12-16T09:40:50;97324.12;;;-2.23;84.15
59690;BME280;45557;50.298;18.930;2022-12-16T09:54:40;97321.20;;;-1.96;84.29
59690;BME280;45557;50.298;18.930;2022-12-16T10:01:22;97327.63;;;-1.93;84.20
59690;BME280;45557;50.298;18.930;2022-12-16T10:08:17;97327.20;;;-1.69;84.34
59690;BME280;45557;50.298;18.930;2022-12-16T10:14:50;97321.02;;;-1.59;83.65
59690;BME280;45557;50.298;18.930;2022-12-16T10:22:03;97331.48;;;-1.50;83.29
59690;BME280;45557;50.298;18.930;2022-12-16T10:35:13;97330.60;;;-1.28;82.58
59690;BME280;45557;50.298;18.930;2022-12-16T10:41:56;97329.23;;;-1.24;81.74
59690;BME280;45557;50.298;18.930;2022-12-16T10:48:38;97335.67;;;-1.23;81.40
59690;BME280;45557;50.298;18.930;2022-12-16T11:02:02;97330.57;;;-1.12;81.70
59690;BME280;45557;50.298;18.930;2022-12-16T11:08:43;97315.23;;;-1.12;80.80
59690;BME280;45557;50.298;18.930;2022-12-16T11:15:40;97296.11;;;-1.02;80.79
59690;BME280;45557;50.298;18.930;2022-12-16T11:22:44;97314.14;;;-0.95;79.57
59690;BME280;45557;50.298;18.930;2022-12-16T11:29:31;97295.67;;;-0.92;78.84
59690;BME280;45557;50.298;18.930;2022-12-16T11:36:26;97301.33;;;-0.93;77.89
59690;BME280;45557;50.298;18.930;2022-12-16T11:43:05;97310.21;;;-1.24;78.26
59690;BME280;45557;50.298;18.930;2022-12-16T11:49:46;97340.20;;;-1.52;79.20
59690;BME280;45557;50.298;18.930;2022-12-16T11:56:32;97359.58;;;-1.60;79.84
59690;BME280;45557;50.298;18.930;2022-12-16T12:03:19;97341.95;;;-1.55;80.30
59690;BME280;45557;50.298;18.930;2022-12-16T12:17:13;97365.12;;;-1.45;79.49
59690;BME280;45557;50.298;18.930;2022-12-16T12:31:06;97377.87;;;-1.76;80.28
59690;BME280;45557;50.298;18.930;2022-12-16T12:37:48;97388.11;;;-1.89;80.59
59690;BME280;45557;50.298;18.930;2022-12-16T12:44:47;97384.58;;;-1.84;81.13
59690;BME280;45557;50.298;18.930;2022-12-16T12:51:43;97395.27;;;-1.76;81.63
59690;BME280;45557;50.298;18.930;2022-12-16T12:58:20;97398.52;;;-1.57;81.57
59690;BME280;45557;50.298;18.930;2022-12-16T13:04:46;97398.44;;;-1.57;81.11
59690;BME280;45557;50.298;18.930;2022-12-16T13:11:34;97412.36;;;-1.70;80.82
59690;BME280;45557;50.298;18.930;2022-12-16T13:18:51;97421.92;;;-1.84;80.93
59690;BME280;45557;50.298;18.930;2022-12-16T13:26:30;97424.29;;;-1.79;81.65
59690;BME280;45557;50.298;18.930;2022-12-16T13:33:25;97432.86;;;-1.66;81.06
59690;BME280;45557;50.298;18.930;2022-12-16T13:40:10;97452.73;;;-1.74;80.72
59690;BME280;45557;50.298;18.930;2022-12-16T13:47:29;97447.56;;;-1.87;80.66
59690;BME280;45557;50.298;18.930;2022-12-16T13:54:17;97469.21;;;-1.97;80.62
59690;BME280;45557;50.298;18.930;2022-12-16T14:01:08;97492.03;;;-2.05;81.35
59690;BME280;45557;50.298;18.930;2022-12-16T14:07:54;97511.70;;;-1.90;81.46
59690;BME280;45557;50.298;18.930;2022-12-16T14:14:38;97518.09;;;-2.00;80.93
59690;BME280;45557;50.298;18.930;2022-12-16T14:21:18;97519.58;;;-2.14;81.24
59690;BME280;45557;50.298;18.930;2022-12-16T14:27:24;97514.85;;;-2.26;80.66
59690;BME280;45557;50.298;18.930;2022-12-16T14:34:19;97499.20;;;-2.47;80.87
59690;BME280;45557;50.298;18.930;2022-12-16T14:41:00;97508.38;;;-2.58;81.21
59690;BME280;45557;50.298;18.930;2022-12-16T14:47:41;97518.76;;;-2.63;81.66
59690;BME280;45557;50.298;18.930;2022-12-16T14:54:34;97530.95;;;-2.55;81.73
59690;BME280;45557;50.298;18.930;2022-12-16T15:01:17;97564.31;;;-2.50;81.61
59690;BME280;45557;50.298;18.930;2022-12-16T15:07:58;97576.09;;;-2.53;81.56
59690;BME280;45557;50.298;18.930;2022-12-16T15:14:29;97596.16;;;-2.57;81.75
59690;BME280;45557;50.298;18.930;2022-12-16T15:21:16;97594.58;;;-2.62;81.86
59690;BME280;45557;50.298;18.930;2022-12-16T15:27:59;97596.92;;;-2.77;82.29
59690;BME280;45557;50.298;18.930;2022-12-16T15:34:47;97619.41;;;-2.77;82.79
59690;BME280;45557;50.298;18.930;2022-12-16T15:41:34;97635.11;;;-2.80;82.86
59690;BME280;45557;50.298;18.930;2022-12-16T15:47:56;97637.56;;;-2.86;83.14
59690;BME280;45557;50.298;18.930;2022-12-16T15:54:00;97649.88;;;-2.74;82.98
59690;BME280;45557;50.298;18.930;2022-12-16T16:00:02;97656.35;;;-2.76;82.98
59690;BME280;45557;50.298;18.930;2022-12-16T16:06:47;97668.71;;;-2.76;83.19
59690;BME280;45557;50.298;18.930;2022-12-16T16:13:28;97675.61;;;-2.71;83.11
59690;BME280;45557;50.298;18.930;2022-12-16T16:20:16;97681.05;;;-2.75;83.52
59690;BME280;45557;50.298;18.930;2022-12-16T16:26:59;97685.27;;;-2.80;83.83
59690;BME280;45557;50.298;18.930;2022-12-16T16:33:40;97693.55;;;-2.83;83.83
59690;BME280;45557;50.298;18.930;2022-12-16T16:47:08;97698.30;;;-2.89;84.03
59690;BME280;45557;50.298;18.930;2022-12-16T16:53:50;97711.77;;;-2.94;84.45
59690;BME280;45557;50.298;18.930;2022-12-16T17:00:32;97722.08;;;-2.84;84.63
59690;BME280;45557;50.298;18.930;2022-12-16T17:07:14;97732.99;;;-2.73;84.38
59690;BME280;45557;50.298;18.930;2022-12-16T17:13:43;97741.02;;;-2.77;84.35
59690;BME280;45557;50.298;18.930;2022-12-16T17:19:45;97758.25;;;-2.76;84.57
59690;BME280;45557;50.298;18.930;2022-12-16T17:26:28;97761.70;;;-2.68;84.14
59690;BME280;45557;50.298;18.930;2022-12-16T17:33:09;97794.54;;;-2.67;83.98
59690;BME280;45557;50.298;18.930;2022-12-16T17:39:11;97798.65;;;-2.77;83.64
59690;BME280;45557;50.298;18.930;2022-12-16T17:45:16;97801.43;;;-2.85;83.85
59690;BME280;45557;50.298;18.930;2022-12-16T17:51:58;97804.86;;;-2.99;84.22
59690;BME280;45557;50.298;18.930;2022-12-16T17:58:50;97794.89;;;-3.09;84.33
59690;BME280;45557;50.298;18.930;2022-12-16T18:05:12;97813.60;;;-3.26;84.70
59690;BME280;45557;50.298;18.930;2022-12-16T18:11:06;97826.41;;;-3.27;84.91
59690;BME280;45557;50.298;18.930;2022-12-16T18:16:48;97818.24;;;-3.23;85.16
59690;BME280;45557;50.298;18.930;2022-12-16T18:23:19;97819.05;;;-3.29;84.97
59690;BME280;45557;50.298;18.930;2022-12-16T18:29:47;97816.52;;;-3.29;85.25
59690;BME280;45557;50.298;18.930;2022-12-16T18:36:09;97822.59;;;-3.27;85.24
59690;BME280;45557;50.298;18.930;2022-12-16T18:42:15;97826.88;;;-3.16;85.27
59690;BME280;45557;50.298;18.930;2022-12-16T18:48:56;97835.54;;;-3.09;85.00
59690;BME280;45557;50.298;18.930;2022-12-16T18:55:02;97839.30;;;-3.17;84.99
59690;BME280;45557;50.298;18.930;2022-12-16T19:01:09;97847.20;;;-3.22;85.28
59690;BME280;45557;50.298;18.930;2022-12-16T19:07:37;97860.89;;;-3.22;85.64
59690;BME280;45557;50.298;18.930;2022-12-16T19:13:51;97866.50;;;-3.22;85.81
59690;BME280;45557;50.298;18.930;2022-12-16T19:19:50;97869.80;;;-3.19;85.72
59690;BME280;45557;50.298;18.930;2022-12-16T19:26:16;97882.36;;;-3.20;85.93
59690;BME280;45557;50.298;18.930;2022-12-16T19:39:39;97896.02;;;-3.42;87.08
59690;BME280;45557;50.298;18.930;2022-12-16T19:46:23;97896.35;;;-3.45;87.72
59690;BME280;45557;50.298;18.930;2022-12-16T19:52:30;97915.33;;;-3.44;87.80
59690;BME280;45557;50.298;18.930;2022-12-16T19:59:01;97925.59;;;-3.60;88.57
59690;BME280;45557;50.298;18.930;2022-12-16T20:05:09;97939.61;;;-3.73;88.93
59690;BME280;45557;50.298;18.930;2022-12-16T20:12:04;97939.73;;;-3.83;89.47
59690;BME280;45557;50.298;18.930;2022-12-16T20:18:43;97955.59;;;-3.78;89.56
59690;BME280;45557;50.298;18.930;2022-12-16T20:25:28;97956.64;;;-3.79;89.81
59690;BME280;45557;50.298;18.930;2022-12-16T20:31:51;97954.80;;;-3.76;89.52
59690;BME280;45557;50.298;18.930;2022-12-16T20:38:34;97963.48;;;-3.83;89.89
59690;BME280;45557;50.298;18.930;2022-12-16T20:45:17;97963.63;;;-3.84;90.26
59690;BME280;45557;50.298;18.930;2022-12-16T20:52:04;97975.88;;;-3.82;90.32
59690;BME280;45557;50.298;18.930;2022-12-16T20:59:00;97990.95;;;-3.77;90.15
59690;BME280;45557;50.298;18.930;2022-12-16T21:05:33;98012.19;;;-3.68;89.67
59690;BME280;45557;50.298;18.930;2022-12-16T21:12:21;98011.16;;;-3.71;89.51
59690;BME280;45557;50.298;18.930;2022-12-16T21:19:26;98002.85;;;-3.78;89.45
59690;BME280;45557;50.298;18.930;2022-12-16T21:26:36;98022.65;;;-3.93;89.72
59690;BME280;45557;50.298;18.930;2022-12-16T21:33:37;98032.22;;;-4.00;90.21
59690;BME280;45557;50.298;18.930;2022-12-16T21:40:19;98031.05;;;-3.99;90.29
59690;BME280;45557;50.298;18.930;2022-12-16T21:47:05;98033.55;;;-4.06;90.31
59690;BME280;45557;50.298;18.930;2022-12-16T21:53:54;98027.50;;;-4.04;90.52
59690;BME280;45557;50.298;18.930;2022-12-16T22:00:36;98037.14;;;-4.03;90.28
59690;BME280;45557;50.298;18.930;2022-12-16T22:07:20;98051.11;;;-4.08;90.54
59690;BME280;45557;50.298;18.930;2022-12-16T22:14:00;98057.59;;;-4.15;90.80
59690;BME280;45557;50.298;18.930;2022-12-16T22:20:42;98057.73;;;-4.21;91.00
59690;BME280;45557;50.298;18.930;2022-12-16T22:27:26;98060.04;;;-4.33;91.85
59690;BME280;45557;50.298;18.930;2022-12-16T22:34:09;98057.56;;;-4.37;91.84
59690;BME280;45557;50.298;18.930;2022-12-16T22:40:37;98066.35;;;-4.42;92.02
59690;BME280;45557;50.298;18.930;2022-12-16T22:47:54;98056.27;;;-4.31;92.15
59690;BME280;45557;50.298;18.930;2022-12-16T22:54:36;98070.65;;;-4.25;91.65
59690;BME280;45557;50.298;18.930;2022-12-16T23:01:26;98063.88;;;-4.18;91.38
59690;BME280;45557;50.298;18.930;2022-12-16T23:07:59;98060.99;;;-4.16;90.84
59690;BME280;45557;50.298;18.930;2022-12-16T23:14:40;98071.42;;;-4.21;90.39
59690;BME280;45557;50.298;18.930;2022-12-16T23:21:21;98073.54;;;-4.25;90.15
59690;BME280;45557;50.298;18.930;2022-12-16T23:35:00;98076.67;;;-4.17;90.47
59690;BME280;45557;50.298;18.930;2022-12-16T23:48:34;98094.23;;;-4.27;89.29
59690;BME280;45557;50.298;18.930;2022-12-16T23:55:16;98101.67;;;-4.35;89.62
